Avoca, Minnesota
Current Conditions -  °F | °C
As of 9:56 AM on Sunday 21 Dec 2014 (Local Time) from KDVP Reporting Station
Moderate Fog Moderate Fog  
Wind Chill: 25°   Ceiling: 200
Heat Index: 32°   Visibility: 0.5mi
Dew Point: 32°   Wind: 8mph
Humidity: 100%   Direction: 160°SSE
Pressure: 29.73"   Gusts: NA
Location:  43.95°N, 95.65°W
Report Text: KDVP 211556Z AUTO 16007KT 1/2SM FG OVC002 00/00 A2973 RMK AO2 T00000000
Loading
Personal Weather Stations






























Interactive Weather Map New forecast layout! Learn more

10-Day Weather Forecast

Advertisements
Track Severe Weather on mobile